Terminal Aerodrome Forecast
Issued by NWS Sioux Falls, SD

Home | Current Version | Previous Version | Graphics & Text | Print | Product List | Glossary On
Versions: 1 2 3 4 5 6 7 8 9 10 11 12 13 14 15 16
929
FTUS43 KFSD 210523
TAFHON
TAF
KHON 210523Z 2106/2206 17011KT P6SM SCT250
     FM211100 14005KT P6SM BKN200
     FM211500 10009KT P6SM SCT250
     FM220000 07006KT P6SM SCT070 BKN120=

USA.gov is the U.S. government's official web portal to all federal, state and local government web resources and services.